Yueyangdongyu16005 — 0016005 — position and weather

sailwx.info

Track history (hours):
 
Tides and Currents Weather Stations Pressure Air Temp Water Temp Dewpoint Dewpoint Depression Visibility Wind Speed Wind Dir Waves Ship Positions

Yueyangdongyu16005

Last reported at 2014-Sep-16 23:04 UTC. Time now 2014-Oct-21 18:33 UTC.
Position N 21°59' E 113°42'.
Warning: this ship's position is 34 days out of date.

Length 33 m.

Type: Fishing. MMSI: 412476783.

Date/timePositionNaut miles runAvg speedWind from/ knotsBaromVisibWave heightAir tempDewpointWater temp
2014-Sep-16 23:04N 21°59' E 113°42'3 3.9
2014-Sep-16 22:12N 22°03' E 113°41'0 0.1
2014-Sep-16 21:30N 22°03' E 113°41'0 0.1
2014-Sep-16 20:24N 22°03' E 113°41'0 0.1
2014-Sep-16 19:17N 22°03' E 113°41'0 0.0
2014-Sep-16 18:29N 22°03' E 113°41'0 0.1
2014-Sep-16 17:29N 22°03' E 113°41'0 0.0
2014-Sep-16 16:29N 22°03' E 113°41'0 0.0
2014-Sep-16 15:29N 22°03' E 113°41'0 0.0
2014-Sep-16 13:25N 22°02' E 113°41'0 0.0
2014-Sep-16 09:18N 22°03' E 113°41'13 0.5
2014-Sep-15 07:12N 22°12' E 113°32'0 0.0
2014-Sep-15 06:25N 22°12' E 113°32'4 5.0
2014-Sep-15 05:33N 22°10' E 113°36'7 6.7
2014-Sep-15 04:33N 22°03' E 113°36'25 6.1
2014-Sep-15 00:26N 21°50' E 113°13'7 8.1
2014-Sep-14 23:32N 21°49' E 113°05'  
Track history (hours):
 
Tides and Currents Weather Stations Pressure Air Temp Water Temp Dewpoint Dewpoint Depression Visibility Wind Speed Wind Dir Waves Ship Positions

Yueyangdongyu16005

Last reported at 2014-Sep-16 23:04 UTC. Time now 2014-Oct-21 18:33 UTC.
Position N 21°59' E 113°42'.
Warning: this ship's position is 34 days out of date.

Length 33 m.

Type: Fishing. MMSI: 412476783.

Date/timePositionNaut miles runAvg speedWind from/ knotsBaromVisibWave heightAir tempDewpointWater temp
2014-Sep-16 23:04N 21°59' E 113°42'3 3.9
2014-Sep-16 22:12N 22°03' E 113°41'0 0.1
2014-Sep-16 21:30N 22°03' E 113°41'0 0.1
2014-Sep-16 20:24N 22°03' E 113°41'0 0.1
2014-Sep-16 19:17N 22°03' E 113°41'0 0.0
2014-Sep-16 18:29N 22°03' E 113°41'0 0.1
2014-Sep-16 17:29N 22°03' E 113°41'0 0.0
2014-Sep-16 16:29N 22°03' E 113°41'0 0.0
2014-Sep-16 15:29N 22°03' E 113°41'0 0.0
2014-Sep-16 13:25N 22°02' E 113°41'0 0.0
2014-Sep-16 09:18N 22°03' E 113°41'13 0.5
2014-Sep-15 07:12N 22°12' E 113°32'0 0.0
2014-Sep-15 06:25N 22°12' E 113°32'4 5.0
2014-Sep-15 05:33N 22°10' E 113°36'7 6.7
2014-Sep-15 04:33N 22°03' E 113°36'25 6.1
2014-Sep-15 00:26N 21°50' E 113°13'7 8.1
2014-Sep-14 23:32N 21°49' E 113°05'  

Dump ship's entire track history